Impacts TAF Board INFO
FOR SITUATIONAL AWARENESS. NOT TO BE USED FOR FLIGHT PLANNING PURPOSES.
IDs:

KDTW - Detroit Metro/Wayne, MI, US

Issued at 0305 UTC 19 Feb 2018
Updated at 0328 UTC 19 Feb 2018
Potential Impact None Slight Moderate High
Time<<19/16Z 19/17Z 19/18Z 19/19Z 19/20Z 19/21Z 19/22Z 19/23Z 20/00Z 20/01Z 20/02Z 20/03Z 20/04Z>>
Type PRVL PRVL PRVL PRVL PRVL PRVL PRVL PRVL PRVL PRVL PRVL PRVL PRVL
VIS 0.75 0.75 0.75 0.75 0.75 0.75 0.75 0.75 2 2 2 2 2
CIG 4 4 4 4 4 4 4 4 6 6 6 6 6
Cover OVC OVC OVC OVC OVC OVC OVC OVC OVC OVC OVC OVC OVC
FltCat LIFR LIFR LIFR LIFR LIFR LIFR LIFR LIFR IFR IFR IFR IFR IFR
WX -SHRA BR -SHRA BR -SHRA BR -SHRA BR -SHRA BR -SHRA BR -SHRA BR -SHRA BR -SHRA BR -SHRA BR -SHRA BR -SHRA BR -SHRA BR
WDir 170 170 170 170 170 170 170 170 210 210 210 210 210
WSpd 5 5 5 5 5 5 5 5 10 10 10 10 10
WGst -- -- -- -- -- -- -- -- -- -- -- -- --

Raw TAF
KDTW 190305Z 1903/2006 13005KT P6SM BKN250 WS020/23040KT
  FM190900 16004KT P6SM SCT025 BKN060 OVC100 WS020/23040KT
  FM191200 16004KT 4SM -SHRA BR SCT007 OVC015
  FM191400 17005KT 2SM -SHRA BR OVC006
  FM191600 17005KT 3/4SM -SHRA BR OVC004
  FM200000 21010KT 2SM -SHRA BR OVC006


METAR Board
Radar Display
Forecast Discussion

FOR SITUATIONAL AWARENESS. NOT TO BE USED FOR FLIGHT PLANNING PURPOSES.